Terminal Aerodrome Forecast
Issued by NWS Charleston, WV

Current Version | Previous Version | Graphics & Text | Print | Product List | Glossary On
Versions: 1 2 3 4 5 6 7 8 9 10 11 12 13 14 15 16 17 18 19 20 21 22 23 24 25
417
FTUS41 KRLX 161729
TAFPKB
TAF
KPKB 161729Z 1618/1718 28010G18KT P6SM OVC025
     FM162200 29008G14KT P6SM OVC025
     FM170000 29005KT P6SM BKN025
     FM170500 30004KT P6SM SCT025
     FM170600 VRB03KT P6SM SCT250
     FM171700 14004KT P6SM SCT250=

USA.gov is the U.S. government's official web portal to all federal, state and local government web resources and services.